createdAt,value
2018-07-10T00:02:28.741Z,4.63
2018-07-10T00:07:28.534Z,9.30
2018-07-10T00:10:17.813Z,5.23
2018-07-10T00:12:46.475Z,3.90
2018-07-10T00:15:15.080Z,4.60
2018-07-10T00:17:43.761Z,5.50
2018-07-10T00:20:12.478Z,3.73
2018-07-10T00:22:41.178Z,3.97
2018-07-10T00:25:09.874Z,4.73
2018-07-10T00:27:38.598Z,4.33
2018-07-10T00:30:07.271Z,7.43
2018-07-10T00:32:35.977Z,5.20
2018-07-10T00:35:04.639Z,4.53
2018-07-10T00:37:33.399Z,5.97
2018-07-10T00:40:02.156Z,3.60
2018-07-10T00:42:30.898Z,5.47
2018-07-10T00:44:59.525Z,3.53
2018-07-10T00:47:28.354Z,5.20
2018-07-10T00:49:57.016Z,5.00
2018-07-10T00:52:34.453Z,3.60
2018-07-10T00:55:03.584Z,4.97
2018-07-10T00:57:33.343Z,5.50
2018-07-10T01:00:02.947Z,4.00
2018-07-10T01:02:31.649Z,4.27
2018-07-10T01:05:00.307Z,3.40
2018-07-10T01:07:28.966Z,4.17
2018-07-10T01:09:57.671Z,3.27
2018-07-10T01:12:26.377Z,11.87
2018-07-10T01:14:55.285Z,5.10
2018-07-10T01:17:23.996Z,9.10
2018-07-10T01:19:52.676Z,5.27
2018-07-10T01:22:21.418Z,9.87
2018-07-10T01:24:50.413Z,4.83
2018-07-10T01:27:18.728Z,4.57
2018-07-10T01:29:48.329Z,6.23
2018-07-10T01:32:17.152Z,4.70
2018-07-10T01:34:45.778Z,5.33
2018-07-10T01:37:14.485Z,5.83
2018-07-10T01:39:43.206Z,5.40
2018-07-10T01:42:11.897Z,5.90
2018-07-10T01:44:40.634Z,3.80
2018-07-10T01:47:09.378Z,4.10
2018-07-10T01:49:38.175Z,5.13
2018-07-10T01:52:07.367Z,6.40
2018-07-10T01:54:36.009Z,8.23
2018-07-10T01:57:04.807Z,8.53
2018-07-10T01:59:33.614Z,5.73
2018-07-10T02:02:02.384Z,10.80
2018-07-10T02:04:31.042Z,7.50
2018-07-10T02:06:59.779Z,8.10
2018-07-10T02:09:28.514Z,9.90
2018-07-10T02:11:57.285Z,4.23
2018-07-10T02:14:25.653Z,4.10
2018-07-10T02:16:54.349Z,5.20
2018-07-10T02:19:23.234Z,4.97
2018-07-10T02:21:51.971Z,4.33
2018-07-10T02:24:23.902Z,3.73
2018-07-10T02:26:53.141Z,6.00
2018-07-10T02:49:18.929Z,4.90
2018-07-10T02:52:06.780Z,6.43
2018-07-10T02:54:36.552Z,5.57
2018-07-10T02:57:07.641Z,5.73
2018-07-10T02:59:40.128Z,8.10
2018-07-10T03:02:12.882Z,5.27
2018-07-10T03:04:41.984Z,4.20
2018-07-10T03:07:13.737Z,6.00
2018-07-10T03:09:42.588Z,4.00
2018-07-10T03:12:11.318Z,6.07
2018-07-10T03:14:40.047Z,5.00
2018-07-10T03:17:09.466Z,6.03
2018-07-10T03:19:38.242Z,4.50
2018-07-10T03:22:07.235Z,5.73
2018-07-10T03:24:35.955Z,5.40
2018-07-10T03:27:04.692Z,4.93
2018-07-10T03:29:33.351Z,5.13
2018-07-10T03:32:02.024Z,7.43
2018-07-10T03:34:30.786Z,4.63
2018-07-10T03:36:59.490Z,5.20
2018-07-10T03:39:28.548Z,6.50
2018-07-10T03:41:57.228Z,5.53
2018-07-10T03:44:26.079Z,3.80
2018-07-10T03:46:54.775Z,8.27
2018-07-10T03:49:23.595Z,5.00
2018-07-10T03:51:53.192Z,5.03
2018-07-10T03:54:21.902Z,4.77
2018-07-10T03:56:50.654Z,8.40
2018-07-10T03:59:19.496Z,7.20
2018-07-10T04:01:48.210Z,5.30
2018-07-10T04:04:16.994Z,5.83
2018-07-10T04:06:47.449Z,5.73
2018-07-10T04:09:16.107Z,4.37
2018-07-10T04:11:48.457Z,4.10
2018-07-10T04:14:19.086Z,7.20
2018-07-10T04:16:47.906Z,3.93
2018-07-10T04:19:17.170Z,6.30
2018-07-10T04:21:55.267Z,3.83
2018-07-10T04:24:29.598Z,5.80
2018-07-10T04:27:32.523Z,5.80
2018-07-10T04:30:21.476Z,6.37
2018-07-10T04:32:50.174Z,5.50
2018-07-10T04:35:21.122Z,8.30
2018-07-10T04:37:51.090Z,6.80
2018-07-10T04:40:20.555Z,4.50
2018-07-10T04:43:00.036Z,9.07
2018-07-10T04:45:33.583Z,4.57
2018-07-10T04:48:02.323Z,3.93
2018-07-10T04:50:42.633Z,7.40
2018-07-10T04:53:43.514Z,3.77
2018-07-10T04:56:13.654Z,3.83
2018-07-10T04:58:45.293Z,5.03
2018-07-10T05:01:15.052Z,8.70
2018-07-10T05:03:44.670Z,4.73
2018-07-10T05:06:13.358Z,4.20
2018-07-10T05:08:43.215Z,6.97
2018-07-10T05:11:11.912Z,5.53
2018-07-10T05:13:40.670Z,8.20
2018-07-10T05:16:09.381Z,4.80
2018-07-10T05:18:38.211Z,5.10
2018-07-10T05:21:10.462Z,12.73
2018-07-10T05:23:39.497Z,6.10
2018-07-10T05:26:09.423Z,4.37
2018-07-10T05:28:38.134Z,5.87
2018-07-10T05:31:06.923Z,3.90
2018-07-10T05:33:35.939Z,6.37
2018-07-10T05:36:05.194Z,5.57
2018-07-10T05:38:38.693Z,4.47
2018-07-10T05:41:08.033Z,3.73
2018-07-10T05:43:44.729Z,5.40
2018-07-10T05:46:13.408Z,6.57
2018-07-10T05:48:51.449Z,4.20
2018-07-10T05:51:20.161Z,6.33
2018-07-10T05:54:01.554Z,3.97
2018-07-10T05:56:30.274Z,3.90
2018-07-10T05:59:01.074Z,7.73
2018-07-10T06:01:29.349Z,8.30
2018-07-10T06:03:58.137Z,5.33
2018-07-10T06:06:27.351Z,4.50
2018-07-10T06:08:56.206Z,5.27
2018-07-10T06:11:24.954Z,6.47
2018-07-10T06:13:54.116Z,6.67
2018-07-10T06:16:22.779Z,8.10
2018-07-10T06:18:53.938Z,6.50
2018-07-10T06:21:23.839Z,6.37
2018-07-10T06:23:53.058Z,5.57
2018-07-10T06:26:21.826Z,10.13
2018-07-10T06:28:57.247Z,7.33
2018-07-10T06:31:28.210Z,7.70
2018-07-10T06:34:05.586Z,8.37
2018-07-10T06:36:40.182Z,5.27
2018-07-10T06:39:12.471Z,5.30
2018-07-10T06:41:50.664Z,6.60
2018-07-10T06:44:20.614Z,9.10
2018-07-10T06:46:53.237Z,4.23
2018-07-10T06:49:23.305Z,6.10
2018-07-10T06:52:02.337Z,6.63
2018-07-10T06:54:31.246Z,6.23
2018-07-10T06:57:00.634Z,4.50
2018-07-10T06:59:29.351Z,5.00
2018-07-10T07:01:58.096Z,5.03
2018-07-10T07:04:26.705Z,5.10
2018-07-10T07:06:55.497Z,7.43
2018-07-10T07:09:24.146Z,5.50
2018-07-10T07:11:52.826Z,4.60
2018-07-10T07:14:21.547Z,7.47
2018-07-10T07:16:50.230Z,5.83
2018-07-10T07:19:19.505Z,6.10
2018-07-10T07:21:48.202Z,9.97
2018-07-10T07:24:16.907Z,4.53
2018-07-10T07:26:45.696Z,6.03
2018-07-10T07:29:14.590Z,6.17
2018-07-10T07:31:43.337Z,6.27
2018-07-10T07:34:12.052Z,5.17
2018-07-10T07:36:40.396Z,7.57
2018-07-10T07:39:09.059Z,6.70
2018-07-10T07:41:37.749Z,5.80
2018-07-10T07:44:06.739Z,7.13
2018-07-10T07:46:35.303Z,6.97
2018-07-10T07:49:04.381Z,10.20
2018-07-10T07:51:32.686Z,6.60
2018-07-10T07:54:01.923Z,10.10
2018-07-10T07:56:30.526Z,6.67
2018-07-10T07:58:59.251Z,5.63
2018-07-10T08:01:27.916Z,7.00
2018-07-10T08:03:56.609Z,7.07
2018-07-10T08:06:25.426Z,6.63
2018-07-10T08:08:54.150Z,9.83
2018-07-10T08:11:22.831Z,7.03
2018-07-10T08:13:51.664Z,6.63
2018-07-10T08:16:20.432Z,6.80
2018-07-10T08:18:49.192Z,7.03
2018-07-10T08:21:17.876Z,8.33
2018-07-10T08:23:46.552Z,8.07
2018-07-10T08:26:15.613Z,9.60
2018-07-10T08:28:44.414Z,7.17
2018-07-10T08:31:13.196Z,10.30
2018-07-10T08:33:41.942Z,7.80
2018-07-10T08:36:10.546Z,9.13
2018-07-10T08:38:44.311Z,10.20
2018-07-10T08:41:25.217Z,10.37
2018-07-10T08:43:54.715Z,8.20
2018-07-10T08:46:26.232Z,8.13
2018-07-10T08:48:55.126Z,8.50
2018-07-10T08:51:23.855Z,8.03
2018-07-10T08:53:54.889Z,7.80
2018-07-10T08:56:23.644Z,10.07
2018-07-10T08:58:52.502Z,8.87
2018-07-10T09:01:21.250Z,9.60
2018-07-10T09:03:49.744Z,10.93
2018-07-10T09:06:18.376Z,8.30
2018-07-10T09:08:47.115Z,9.60
2018-07-10T09:11:15.866Z,11.03
2018-07-10T09:13:44.670Z,9.10
2018-07-10T09:16:13.378Z,10.20
2018-07-10T09:18:42.175Z,9.50
2018-07-10T09:21:10.851Z,6.97
2018-07-10T09:23:39.620Z,7.67
2018-07-10T09:26:08.351Z,9.43
2018-07-10T09:28:37.971Z,9.10
2018-07-10T09:31:07.198Z,7.40
2018-07-10T09:33:36.501Z,9.13
2018-07-10T09:36:05.766Z,7.23
2018-07-10T09:38:35.914Z,7.90
2018-07-10T09:41:06.505Z,7.87
2018-07-10T09:43:36.448Z,8.13
2018-07-10T09:46:05.194Z,8.23
2018-07-10T09:48:34.030Z,8.60
2018-07-10T09:51:02.823Z,9.40
2018-07-10T09:53:31.547Z,9.33
2018-07-10T09:56:00.333Z,12.83
2018-07-10T09:58:29.147Z,12.83
2018-07-10T10:01:04.656Z,11.10
2018-07-10T10:03:33.723Z,13.10
2018-07-10T10:06:03.221Z,7.83
2018-07-10T10:08:31.982Z,9.97
2018-07-10T10:11:00.747Z,10.90
2018-07-10T10:13:29.399Z,7.73
2018-07-10T10:15:58.158Z,8.60
2018-07-10T10:18:27.873Z,6.30
2018-07-10T10:20:56.875Z,6.47
2018-07-10T10:23:25.682Z,5.90
2018-07-10T10:25:54.409Z,7.50
2018-07-10T10:28:23.936Z,7.60
2018-07-10T10:30:52.596Z,6.60
2018-07-10T10:33:21.370Z,5.87
2018-07-10T10:35:50.067Z,8.30
2018-07-10T10:38:18.746Z,6.73
2018-07-10T10:40:49.270Z,5.30
2018-07-10T10:43:17.979Z,6.47
2018-07-10T10:45:46.772Z,6.27
2018-07-10T10:48:16.306Z,6.07
2018-07-10T10:50:47.572Z,4.87
2018-07-10T10:53:16.558Z,5.33
2018-07-10T10:55:45.201Z,6.13
2018-07-10T10:58:13.918Z,3.93
2018-07-10T11:00:42.592Z,3.33
2018-07-10T11:03:11.323Z,3.40
2018-07-10T11:05:41.006Z,3.60
2018-07-10T11:08:09.788Z,4.07
2018-07-10T11:10:38.488Z,3.73
2018-07-10T11:13:07.413Z,7.60
2018-07-10T11:15:42.131Z,9.87
2018-07-10T11:18:12.583Z,11.70
2018-07-10T11:22:20.027Z,16.23
2018-07-10T11:24:56.059Z,17.73
2018-07-10T11:27:36.211Z,17.90
2018-07-10T11:30:04.962Z,18.57
2018-07-10T11:32:33.697Z,19.13
2018-07-10T11:35:02.357Z,28.10
2018-07-10T11:37:31.070Z,26.10
2018-07-10T11:39:59.811Z,19.70
2018-07-10T11:42:28.639Z,23.00
2018-07-10T11:44:57.370Z,18.43
2018-07-10T11:47:27.170Z,20.50
2018-07-10T11:49:55.946Z,18.90
2018-07-10T11:52:24.666Z,20.53
2018-07-10T11:54:53.397Z,19.63
2018-07-10T11:57:22.197Z,14.80
2018-07-10T11:59:50.851Z,16.90
2018-07-10T12:02:19.893Z,16.23
2018-07-10T12:04:48.249Z,16.13
2018-07-10T12:07:16.943Z,14.53
2018-07-10T12:09:56.668Z,16.23
2018-07-10T12:12:25.371Z,16.57
2018-07-10T12:14:54.067Z,14.00
2018-07-10T12:17:22.791Z,20.40
2018-07-10T12:19:51.553Z,14.27
2018-07-10T12:22:20.339Z,13.30
2018-07-10T12:24:49.063Z,13.07
2018-07-10T12:27:17.836Z,15.00
2018-07-10T12:29:46.590Z,14.07
2018-07-10T12:32:15.308Z,15.23
2018-07-10T12:34:44.003Z,14.33
2018-07-10T12:37:12.667Z,13.87
2018-07-10T12:39:41.417Z,14.60
2018-07-10T12:42:10.361Z,14.37
2018-07-10T12:44:39.029Z,16.97
2018-07-10T12:47:07.660Z,15.60
2018-07-10T12:49:36.358Z,14.27
2018-07-10T12:52:05.047Z,16.20
2018-07-10T12:54:33.829Z,15.33
2018-07-10T12:57:02.611Z,13.37
2018-07-10T12:59:31.407Z,12.13
2018-07-10T13:02:00.094Z,11.90
2018-07-10T13:04:28.898Z,11.93
2018-07-10T13:06:57.588Z,11.70
2018-07-10T13:09:26.308Z,10.63
2018-07-10T13:11:55.107Z,13.07
2018-07-10T13:14:23.877Z,11.67
2018-07-10T13:16:52.632Z,11.90
2018-07-10T13:19:21.581Z,14.43
2018-07-10T13:21:50.305Z,12.33
2018-07-10T13:24:18.962Z,13.27
2018-07-10T13:26:47.621Z,11.87
2018-07-10T13:29:16.358Z,12.83
2018-07-10T13:31:45.081Z,12.40
2018-07-10T13:34:13.837Z,15.17
2018-07-10T13:36:42.645Z,14.10
2018-07-10T13:39:11.417Z,15.30
2018-07-10T13:41:40.218Z,15.67
2018-07-10T13:44:08.594Z,15.53
2018-07-10T13:46:38.273Z,14.60
2018-07-10T13:49:07.043Z,22.77
2018-07-10T13:51:35.676Z,17.17
2018-07-10T13:54:04.406Z,18.83
2018-07-10T13:56:33.073Z,21.57
2018-07-10T13:59:01.821Z,14.23
2018-07-10T14:01:30.482Z,16.33
2018-07-10T14:03:59.218Z,15.90
2018-07-10T14:06:27.906Z,17.03
2018-07-10T14:08:56.701Z,17.60
2018-07-10T14:11:25.442Z,15.77
2018-07-10T14:13:54.166Z,21.17
2018-07-10T14:16:22.898Z,20.40
2018-07-10T14:18:54.450Z,20.37
2018-07-10T14:21:23.126Z,24.23
2018-07-10T14:23:51.901Z,22.83
2018-07-10T14:26:20.656Z,23.60
2018-07-10T14:28:49.398Z,21.27
2018-07-10T14:31:18.139Z,18.80
2018-07-10T14:33:46.926Z,17.27
2018-07-10T14:36:15.638Z,22.30
2018-07-10T14:38:44.970Z,16.30
2018-07-10T14:41:15.261Z,14.60
2018-07-10T14:43:45.013Z,17.10
2018-07-10T14:46:20.192Z,16.37
2018-07-10T14:48:55.584Z,15.80
2018-07-10T14:51:58.119Z,13.57
2018-07-10T14:54:26.967Z,18.93
2018-07-10T14:56:55.703Z,13.40
2018-07-10T14:59:24.445Z,13.63
2018-07-10T15:01:53.249Z,12.13
2018-07-10T15:04:21.990Z,11.67
2018-07-10T15:06:50.711Z,11.40
2018-07-10T15:09:19.463Z,10.40
2018-07-10T15:11:48.132Z,10.20
2018-07-10T15:14:16.927Z,10.87
2018-07-10T15:16:51.023Z,11.50
2018-07-10T15:19:19.679Z,11.10
2018-07-10T15:21:48.471Z,10.80
2018-07-10T15:24:17.194Z,10.10
2018-07-10T15:26:45.903Z,9.60
2018-07-10T15:29:19.937Z,8.83
2018-07-10T15:31:48.698Z,11.47
2018-07-10T15:34:17.351Z,9.70
2018-07-10T15:36:46.186Z,10.80
2018-07-10T15:39:15.148Z,11.40
2018-07-10T15:41:44.891Z,10.17
2018-07-10T15:44:13.549Z,11.13
2018-07-10T15:46:42.237Z,10.53
2018-07-10T15:49:10.891Z,9.07
2018-07-10T15:51:39.545Z,8.70
2018-07-10T15:54:08.268Z,9.93
2018-07-10T15:56:37.006Z,8.83
2018-07-10T15:59:05.885Z,8.67
2018-07-10T16:01:34.682Z,7.70
2018-07-10T16:04:03.425Z,8.67
2018-07-10T16:07:32.340Z,10.73
2018-07-10T16:10:01.063Z,7.80
2018-07-10T16:18:26.563Z,7.53
2018-07-10T16:20:58.716Z,7.80
2018-07-10T16:23:27.226Z,8.63
2018-07-10T16:26:00.774Z,8.23
2018-07-10T16:28:29.314Z,9.30
2018-07-10T16:30:58.112Z,7.53
2018-07-10T16:33:30.440Z,14.20
2018-07-10T16:35:59.039Z,7.73
2018-07-10T16:38:27.778Z,6.70
2018-07-10T16:41:01.877Z,6.97
2018-07-10T16:43:30.634Z,7.20
2018-07-10T16:46:01.140Z,6.20
2018-07-10T16:48:42.918Z,6.40
2018-07-10T16:51:22.231Z,4.63
2018-07-10T16:53:55.722Z,4.63
2018-07-10T16:56:24.560Z,3.60
2018-07-10T16:58:54.239Z,4.00
2018-07-10T17:01:24.207Z,3.73
2018-07-10T17:03:53.235Z,3.80
2018-07-10T17:06:23.006Z,3.30
2018-07-10T17:08:51.783Z,3.47
2018-07-10T17:11:20.550Z,3.50
2018-07-10T17:14:06.880Z,4.07
2018-07-10T17:16:36.676Z,3.87
2018-07-10T17:19:05.398Z,5.17
2018-07-10T17:27:29.344Z,4.20
2018-07-10T17:29:58.064Z,3.73
2018-07-10T17:32:26.759Z,6.73
2018-07-10T17:34:55.563Z,4.53
2018-07-10T17:37:24.292Z,3.50
2018-07-10T17:39:53.165Z,3.80
2018-07-10T17:42:22.007Z,4.80
2018-07-10T17:44:50.835Z,4.47
2018-07-10T17:47:21.634Z,5.53
2018-07-10T17:49:50.392Z,5.70
2018-07-10T17:52:19.205Z,6.03
2018-07-10T17:54:47.868Z,4.07
2018-07-10T17:57:16.594Z,3.97
2018-07-10T17:59:45.333Z,4.67
2018-07-10T18:02:25.059Z,6.10
2018-07-10T18:04:53.810Z,4.13
2018-07-10T18:07:22.590Z,4.70
2018-07-10T18:09:51.268Z,3.97
2018-07-10T18:12:20.055Z,5.60
2018-07-10T18:14:48.768Z,4.07
2018-07-10T18:17:17.500Z,4.00
2018-07-10T18:19:46.345Z,4.00
2018-07-10T18:22:15.078Z,5.87
2018-07-10T18:24:43.826Z,3.73
2018-07-10T18:27:12.542Z,6.37
2018-07-10T18:29:41.274Z,3.87
2018-07-10T18:32:10.059Z,4.80
2018-07-10T18:34:39.068Z,4.60
2018-07-10T18:37:08.322Z,3.47
2018-07-10T18:39:37.070Z,4.33
2018-07-10T18:42:05.965Z,3.93
2018-07-10T18:44:34.768Z,3.43
2018-07-10T18:47:03.577Z,3.60
2018-07-10T18:49:41.804Z,3.97
2018-07-10T18:52:10.555Z,4.10
2018-07-10T18:54:55.678Z,5.33
2018-07-10T19:00:31.002Z,8.60
2018-07-10T19:03:05.360Z,6.50
2018-07-10T19:05:39.239Z,3.93
2018-07-10T19:08:07.561Z,3.50
2018-07-10T19:10:42.172Z,4.27
2018-07-10T19:13:10.987Z,4.13
2018-07-10T19:15:39.686Z,8.43
2018-07-10T19:18:08.414Z,9.03
2018-07-10T19:20:42.299Z,6.73
2018-07-10T19:23:23.440Z,3.83
2018-07-10T19:25:52.243Z,3.80
2018-07-10T19:28:21.081Z,4.83
2018-07-10T19:30:57.148Z,4.70
2018-07-10T19:33:27.015Z,3.37
2018-07-10T19:35:55.897Z,4.40
2018-07-10T19:38:24.788Z,6.50
2018-07-10T19:40:53.526Z,5.23
2018-07-10T19:43:23.283Z,5.27
2018-07-10T19:46:10.247Z,4.47
2018-07-10T19:48:39.792Z,5.50
2018-07-10T19:51:10.729Z,4.40
2018-07-10T19:53:39.638Z,3.30
2018-07-10T19:56:09.418Z,3.90
2018-07-10T19:58:41.390Z,3.83
2018-07-10T20:01:32.011Z,7.50
2018-07-10T20:04:07.500Z,7.27
2018-07-10T20:06:47.657Z,3.73
2018-07-10T20:09:18.048Z,5.30
2018-07-10T20:11:53.947Z,4.50
2018-07-10T20:14:24.906Z,3.90
2018-07-10T20:16:58.970Z,7.60
2018-07-10T20:20:22.246Z,7.83
2018-07-10T20:23:16.210Z,4.40
2018-07-10T20:26:04.546Z,3.67
2018-07-10T20:28:43.395Z,4.63
2018-07-10T20:32:20.578Z,7.77
2018-07-10T20:35:02.958Z,3.90
2018-07-10T20:37:31.870Z,3.90
2018-07-10T20:40:00.824Z,7.23
2018-07-10T20:42:38.208Z,3.40
2018-07-10T20:45:08.422Z,6.53
2018-07-10T20:47:55.063Z,8.17
2018-07-10T20:50:38.149Z,4.03
2018-07-10T20:53:21.315Z,4.57
2018-07-10T20:55:53.771Z,5.40
2018-07-10T20:58:24.316Z,3.97
2018-07-10T21:01:04.830Z,3.40
2018-07-10T21:03:45.219Z,5.07
2018-07-10T21:06:31.191Z,5.70
2018-07-10T21:09:08.072Z,4.97
2018-07-10T21:12:15.972Z,3.73
2018-07-10T21:15:09.443Z,3.93
2018-07-10T21:17:53.898Z,3.77
2018-07-10T21:21:33.369Z,4.53
2018-07-10T21:24:11.427Z,4.30
2018-07-10T21:26:45.460Z,5.50
2018-07-10T21:29:21.471Z,5.07
2018-07-10T21:32:00.527Z,7.23
2018-07-10T21:34:52.157Z,4.10
2018-07-10T21:40:39.545Z,3.90
2018-07-10T21:43:16.448Z,3.57
2018-07-10T21:46:56.649Z,6.73
2018-07-10T21:49:35.667Z,4.00
2018-07-10T21:52:04.423Z,4.40
2018-07-10T21:54:33.177Z,4.20
2018-07-10T21:57:02.502Z,4.30
2018-07-10T21:59:32.006Z,6.57
2018-07-10T22:02:01.979Z,4.20
2018-07-10T22:04:31.957Z,4.10
2018-07-10T22:07:01.320Z,5.27
2018-07-10T22:09:33.018Z,4.67
2018-07-10T22:12:06.421Z,4.83
2018-07-10T22:14:35.145Z,3.90
2018-07-10T22:17:05.235Z,5.53
2018-07-10T22:19:36.411Z,6.27
2018-07-10T22:22:05.144Z,6.30
2018-07-10T22:24:33.871Z,6.80
2018-07-10T22:27:02.602Z,5.10
2018-07-10T22:29:36.635Z,4.10
2018-07-10T22:32:10.199Z,4.27
2018-07-10T22:34:42.726Z,5.20
2018-07-10T22:37:18.274Z,5.20
2018-07-10T22:39:47.997Z,5.67
2018-07-10T22:42:16.792Z,5.17
2018-07-10T22:44:49.076Z,4.40
2018-07-10T22:47:19.674Z,5.93
2018-07-10T22:49:49.677Z,5.53
2018-07-10T22:52:18.797Z,6.43
2018-07-10T22:54:47.600Z,4.27
2018-07-10T22:57:16.393Z,4.40
2018-07-10T22:59:45.196Z,4.37
2018-07-10T23:02:13.974Z,7.67
2018-07-10T23:04:42.750Z,4.90
2018-07-10T23:07:11.482Z,4.67
2018-07-10T23:09:40.313Z,7.37
2018-07-10T23:12:09.022Z,4.43
2018-07-10T23:14:37.810Z,4.37
2018-07-10T23:17:06.546Z,4.40
2018-07-10T23:19:35.342Z,4.10
2018-07-10T23:22:04.114Z,4.00
2018-07-10T23:24:32.966Z,4.93
2018-07-10T23:27:01.755Z,6.20
2018-07-10T23:29:34.463Z,4.00
2018-07-10T23:32:03.202Z,4.60
2018-07-10T23:34:32.243Z,3.73
2018-07-10T23:37:01.343Z,7.10
2018-07-10T23:39:33.594Z,6.07
2018-07-10T23:42:06.155Z,5.10
2018-07-10T23:44:38.395Z,4.20
2018-07-10T23:47:40.328Z,5.27
2018-07-10T23:50:27.828Z,3.80
2018-07-10T23:53:59.466Z,6.10
2018-07-10T23:56:28.197Z,4.03
2018-07-10T23:58:56.933Z,6.10
